Time;durP1;ratioP1;P1;durP2;ratioP2;P2;SDS_P1;SDS_P2;PMS_P1;PMS_P2;Temp;Humidity;BMP_temperature;BMP_pressure;BME280_temperature;BME280_humidity;BME280_pressure;Samples;Min_cycle;Max_cycle;Signal;HPM_P1;HPM_P2
2022/04/08 00:00:14;;;;;;;7.45;0.30;;;5.90;99.90;;;;;;5008735;28;20105;-79
2022/04/08 00:02:39;;;;;;;4.38;0.22;;;5.90;99.90;;;;;;5020695;28;20033;-78
2022/04/08 00:05:07;;;;;;;4.22;0.30;;;5.90;99.90;;;;;;4987344;28;20490;-80
2022/04/08 00:07:33;;;;;;;6.53;0.30;;;5.90;99.90;;;;;;4979064;28;20042;-79
2022/04/08 00:09:58;;;;;;;5.20;0.30;;;5.80;99.90;;;;;;4977271;28;20052;-79
2022/04/08 00:12:24;;;;;;;6.40;0.55;;;5.80;99.90;;;;;;4981146;28;20034;-79
2022/04/08 00:14:50;;;;;;;7.63;0.20;;;5.80;99.90;;;;;;5010529;28;20478;-80
2022/04/08 00:17:15;;;;;;;4.47;0.50;;;5.80;99.90;;;;;;4997623;28;20113;-79
2022/04/08 00:19:41;;;;;;;4.35;0.20;;;5.80;99.90;;;;;;4976658;28;20030;-79
2022/04/08 00:22:07;;;;;;;7.80;0.32;;;5.80;99.90;;;;;;5007015;28;20040;-78
2022/04/08 00:24:33;;;;;;;5.03;0.20;;;5.80;99.90;;;;;;5011738;28;20029;-78
2022/04/08 00:26:59;;;;;;;4.78;0.35;;;5.80;99.90;;;;;;5006828;28;20037;-78
2022/04/08 00:29:24;;;;;;;4.28;0.20;;;5.80;99.90;;;;;;5019938;28;20432;-79
2022/04/08 00:31:57;;;;;;;4.25;0.30;;;5.80;99.90;;;;;;4997770;28;20044;-79
2022/04/08 00:34:26;;;;;;;5.03;0.20;;;5.80;99.90;;;;;;4988936;28;20028;-78
2022/04/08 00:36:54;;;;;;;5.63;0.28;;;5.80;99.90;;;;;;5030365;28;20033;-78
2022/04/08 00:39:20;;;;;;;5.80;0.20;;;5.80;99.90;;;;;;5016042;28;20641;-79
2022/04/08 00:41:46;;;;;;;2.55;0.20;;;5.80;99.90;;;;;;5011047;28;20025;-80
2022/04/08 00:44:12;;;;;;;6.15;0.40;;;5.80;99.90;;;;;;5011114;28;20432;-78
2022/04/08 00:46:38;;;;;;;2.58;0.30;;;5.80;99.90;;;;;;5028621;28;20763;-78
2022/04/08 00:49:04;;;;;;;4.38;0.30;;;5.70;99.90;;;;;;5022343;28;20029;-79
2022/04/08 00:51:31;;;;;;;4.18;0.22;;;5.60;99.90;;;;;;5022127;28;20528;-79
2022/04/08 00:53:58;;;;;;;2.58;0.10;;;5.60;99.90;;;;;;4985101;28;20402;-79
2022/04/08 00:56:24;;;;;;;5.63;0.28;;;5.60;99.90;;;;;;4994108;28;20033;-78
2022/04/08 00:58:50;;;;;;;2.90;0.20;;;5.60;99.90;;;;;;5001797;28;20037;-79
2022/04/08 01:01:16;;;;;;;7.97;0.30;;;5.70;99.90;;;;;;5004954;28;20038;-78
2022/04/08 01:03:42;;;;;;;6.45;0.20;;;5.70;99.90;;;;;;4997239;28;20088;-79
2022/04/08 01:06:07;;;;;;;4.97;0.30;;;5.70;99.90;;;;;;5004902;28;20030;-79
2022/04/08 01:08:35;;;;;;;4.68;0.20;;;5.60;99.90;;;;;;5024925;28;20033;-79
2022/04/08 01:11:02;;;;;;;7.30;0.30;;;5.60;99.90;;;;;;5002561;28;20061;-78
2022/04/08 01:13:28;;;;;;;7.45;0.40;;;5.60;99.90;;;;;;5011112;28;20045;-78
2022/04/08 01:15:53;;;;;;;5.80;0.30;;;5.50;99.90;;;;;;5027394;28;20037;-79
2022/04/08 01:18:19;;;;;;;2.53;0.50;;;5.50;99.90;;;;;;5014052;28;20069;-78
2022/04/08 01:20:44;;;;;;;7.65;0.20;;;5.50;99.90;;;;;;5020018;28;20473;-78
2022/04/08 01:23:10;;;;;;;6.05;0.40;;;5.50;99.90;;;;;;5025249;28;20076;-78
2022/04/08 01:25:36;;;;;;;3.75;0.22;;;5.60;99.90;;;;;;5027247;28;20053;-79
2022/04/08 01:28:02;;;;;;;7.47;0.35;;;5.60;99.90;;;;;;5021392;28;20474;-78
2022/04/08 01:30:27;;;;;;;8.45;0.73;;;5.70;99.90;;;;;;5008864;28;20026;-79
2022/04/08 01:32:53;;;;;;;10.13;0.77;;;5.50;99.90;;;;;;5022328;28;20117;-79
2022/04/08 01:35:18;;;;;;;7.47;0.38;;;5.50;99.90;;;;;;5026307;28;20022;-78
2022/04/08 01:37:44;;;;;;;9.60;0.60;;;5.40;99.90;;;;;;5011851;28;20033;-79
2022/04/08 01:40:10;;;;;;;5.78;0.30;;;5.40;99.90;;;;;;5006128;28;20034;-79
2022/04/08 01:42:36;;;;;;;9.50;0.63;;;5.30;99.90;;;;;;5005899;28;20025;-78
2022/04/08 01:45:01;;;;;;;5.95;0.30;;;5.30;99.90;;;;;;4988471;28;20433;-79
2022/04/08 01:47:27;;;;;;;11.27;0.88;;;5.30;99.90;;;;;;5018300;28;20033;-78
2022/04/08 01:54:06;;;;;;;6.90;0.40;;;5.10;99.90;;;;;;4997792;28;20057;-78
2022/04/08 01:56:31;;;;;;;5.72;0.30;;;5.10;99.90;;;;;;5005661;28;20351;-78
2022/04/08 01:58:57;;;;;;;5.82;0.32;;;5.10;99.90;;;;;;5000292;28;20637;-78
2022/04/08 02:01:23;;;;;;;9.07;0.65;;;5.10;99.90;;;;;;5002198;28;20110;-77
2022/04/08 02:03:48;;;;;;;8.00;0.40;;;5.00;99.90;;;;;;5005416;28;20509;-78
2022/04/08 02:06:14;;;;;;;8.50;0.45;;;5.00;99.90;;;;;;5021236;28;20034;-78
2022/04/08 02:08:39;;;;;;;8.02;0.47;;;5.00;99.90;;;;;;5009502;28;21316;-78
2022/04/08 02:11:05;;;;;;;5.55;0.70;;;5.00;99.90;;;;;;5000999;28;20133;-77
2022/04/08 02:13:33;;;;;;;6.38;0.35;;;4.80;99.90;;;;;;5008242;28;20516;-79
2022/04/08 02:15:58;;;;;;;9.65;0.38;;;4.70;99.90;;;;;;4989447;28;20026;-78
2022/04/08 02:18:24;;;;;;;9.45;0.40;;;4.70;99.90;;;;;;4986411;28;20379;-78
2022/04/08 02:20:51;;;;;;;8.13;0.40;;;4.80;99.90;;;;;;5018600;28;20030;-78
2022/04/08 02:23:17;;;;;;;8.57;0.60;;;4.70;99.90;;;;;;5019296;28;20041;-78
2022/04/08 02:25:45;;;;;;;5.45;0.38;;;4.70;99.90;;;;;;5004195;28;20037;-78
2022/04/08 02:39:34;;;;;;;10.75;0.35;;;4.70;99.90;;;;;;5006766;28;20131;-78
2022/04/08 02:42:00;;;;;;;5.28;0.50;;;4.60;99.90;;;;;;5004156;28;20031;-78
2022/04/08 02:44:25;;;;;;;10.50;0.30;;;4.60;99.90;;;;;;5007280;28;20092;-78
2022/04/08 02:46:51;;;;;;;10.82;0.50;;;4.50;99.90;;;;;;5017750;28;20042;-78
2022/04/08 02:49:17;;;;;;;4.68;0.40;;;4.50;99.90;;;;;;5000547;28;20030;-78
2022/04/08 02:51:42;;;;;;;3.83;0.30;;;4.50;99.90;;;;;;4977361;28;20061;-79
2022/04/08 02:54:08;;;;;;;11.02;0.50;;;4.40;99.90;;;;;;5002142;28;20029;-78
2022/04/08 02:56:33;;;;;;;4.80;0.32;;;4.40;99.90;;;;;;5013547;28;20439;-78
2022/04/08 02:59:00;;;;;;;4.60;0.30;;;4.40;99.90;;;;;;4990325;28;20045;-78
2022/04/08 03:01:27;;;;;;;3.65;0.30;;;4.30;99.90;;;;;;4994742;28;20101;-79
2022/04/08 03:03:52;;;;;;;8.15;0.75;;;4.20;99.90;;;;;;5006808;28;20030;-78
2022/04/08 03:06:18;;;;;;;7.95;0.60;;;4.20;99.90;;;;;;5005856;28;20018;-79
2022/04/08 03:08:44;;;;;;;6.28;0.40;;;4.20;99.90;;;;;;5006816;28;20437;-78
2022/04/08 03:11:10;;;;;;;7.55;0.40;;;4.20;99.90;;;;;;5005522;28;20045;-78
2022/04/08 03:13:35;;;;;;;5.95;0.50;;;4.30;99.90;;;;;;5006959;28;20026;-78
2022/04/08 03:16:02;;;;;;;10.18;0.45;;;4.30;99.90;;;;;;5009034;28;20276;-78
2022/04/08 03:18:28;;;;;;;7.38;0.38;;;4.30;99.90;;;;;;5003301;28;20105;-78
2022/04/08 03:20:53;;;;;;;6.50;0.40;;;4.30;99.90;;;;;;4980870;28;20129;-78
2022/04/08 03:23:19;;;;;;;8.30;0.73;;;4.30;99.90;;;;;;5001876;28;20025;-78
2022/04/08 03:25:44;;;;;;;6.32;0.30;;;4.30;99.90;;;;;;5006488;28;20029;-78
2022/04/08 03:28:10;;;;;;;8.02;0.60;;;4.40;99.90;;;;;;4985398;28;20026;-78
2022/04/08 03:30:36;;;;;;;5.05;0.35;;;4.40;99.90;;;;;;4988373;28;20462;-78
2022/04/08 03:33:02;;;;;;;8.38;0.40;;;4.40;99.90;;;;;;5006810;28;20036;-78
2022/04/08 03:35:27;;;;;;;6.38;0.40;;;4.50;99.90;;;;;;5001250;28;20026;-79
2022/04/08 03:37:53;;;;;;;11.13;0.55;;;4.60;99.90;;;;;;4983916;28;20459;-77
2022/04/08 03:40:19;;;;;;;7.15;0.40;;;4.60;99.90;;;;;;4996684;28;20080;-77
2022/04/08 03:42:45;;;;;;;13.88;0.80;;;4.70;99.90;;;;;;5020648;28;20032;-78
2022/04/08 03:45:11;;;;;;;5.03;0.30;;;4.70;99.90;;;;;;4998784;28;20478;-78
2022/04/08 03:47:37;;;;;;;3.85;0.40;;;4.70;99.90;;;;;;5015566;28;20037;-77
2022/04/08 03:50:03;;;;;;;8.98;0.50;;;4.70;99.90;;;;;;5003597;28;20414;-78
2022/04/08 03:52:32;;;;;;;7.82;0.30;;;4.70;99.90;;;;;;4997802;28;20064;-77
2022/04/08 03:54:59;;;;;;;8.07;0.30;;;4.70;99.90;;;;;;4992795;28;20030;-78
2022/04/08 03:57:26;;;;;;;13.93;0.50;;;4.60;99.90;;;;;;4995904;28;20057;-78
2022/04/08 03:59:52;;;;;;;5.90;0.30;;;4.60;99.90;;;;;;5001345;28;20109;-78
2022/04/08 04:02:17;;;;;;;5.38;0.30;;;4.60;99.90;;;;;;4985284;28;20168;-78
2022/04/08 04:04:43;;;;;;;5.90;0.40;;;4.50;99.90;;;;;;5005390;28;20029;-78
2022/04/08 04:07:09;;;;;;;7.70;0.32;;;4.50;99.90;;;;;;5018992;28;20049;-78
2022/04/08 04:09:35;;;;;;;6.35;0.40;;;4.40;99.90;;;;;;5008023;28;20027;-78
2022/04/08 04:12:44;;;;;;;4.65;0.30;;;4.30;99.90;;;;;;4991305;28;20073;-78
2022/04/08 04:15:10;;;;;;;6.00;0.40;;;4.30;99.90;;;;;;4883031;29;20136;-77
2022/04/08 04:17:36;;;;;;;2.00;0.40;;;4.20;99.90;;;;;;4895406;29;20534;-78
2022/04/08 04:20:02;;;;;;;3.63;0.20;;;4.10;99.90;;;;;;4895082;29;20123;-78
2022/04/08 04:22:28;;;;;;;2.47;0.10;;;4.10;99.90;;;;;;4879930;29;20035;-78
2022/04/08 04:24:53;;;;;;;2.53;0.20;;;4.00;99.90;;;;;;4879934;29;20453;-78
2022/04/08 04:27:19;;;;;;;2.67;0.20;;;4.00;99.90;;;;;;4894933;29;20143;-78
2022/04/08 04:29:44;;;;;;;4.38;0.35;;;3.90;99.90;;;;;;4876694;29;20029;-78
2022/04/08 04:32:10;;;;;;;3.35;0.20;;;3.90;99.90;;;;;;4894924;29;20053;-77
2022/04/08 04:34:38;;;;;;;1.85;0.10;;;3.80;99.90;;;;;;4895403;29;20462;-78
2022/04/08 04:37:04;;;;;;;2.40;0.20;;;3.70;99.90;;;;;;4879660;29;20374;-78
2022/04/08 04:39:30;;;;;;;2.28;0.10;;;3.70;99.90;;;;;;4879228;29;20044;-78
2022/04/08 04:41:56;;;;;;;2.20;0.13;;;3.70;99.90;;;;;;4894853;29;20097;-78
2022/04/08 04:44:21;;;;;;;1.60;0.10;;;3.60;99.90;;;;;;4875289;29;20044;-78
2022/04/08 04:50:49;;;;;;;1.48;0.10;;;3.50;99.90;;;;;;4893331;29;20081;-78
2022/04/08 05:01:15;;;;;;;2.40;0.20;;;3.40;99.90;;;;;;4968926;28;20080;-77
2022/04/08 05:03:40;;;;;;;1.52;0.20;;;3.40;99.90;;;;;;4954619;28;20399;-78
2022/04/08 05:06:06;;;;;;;2.60;0.20;;;3.30;99.90;;;;;;4970915;28;20125;-78
2022/04/08 05:08:32;;;;;;;4.25;0.22;;;3.40;99.90;;;;;;4948660;28;20042;-78
2022/04/08 05:10:58;;;;;;;2.13;0.13;;;3.40;99.90;;;;;;4951481;28;20559;-78
2022/04/08 05:13:23;;;;;;;2.90;0.22;;;3.30;99.90;;;;;;4947482;28;20513;-78
2022/04/08 05:15:49;;;;;;;1.88;0.10;;;3.30;99.90;;;;;;4960378;28;20038;-78
2022/04/08 05:18:15;;;;;;;2.35;0.13;;;3.30;99.90;;;;;;4968978;28;20117;-78
2022/04/08 05:20:40;;;;;;;2.75;0.20;;;3.30;99.90;;;;;;4933159;28;20023;-78
2022/04/08 05:23:06;;;;;;;2.92;0.10;;;3.40;99.90;;;;;;4970468;28;20571;-78
2022/04/08 05:25:32;;;;;;;1.85;0.17;;;3.50;99.90;;;;;;4992156;28;20130;-78
2022/04/08 05:27:57;;;;;;;2.30;0.20;;;3.50;99.90;;;;;;4991466;28;20033;-78
2022/04/08 05:30:23;;;;;;;5.38;0.30;;;3.50;99.90;;;;;;4988779;28;20113;-78
2022/04/08 05:32:49;;;;;;;2.22;0.20;;;3.50;99.90;;;;;;5006505;28;20367;-78
2022/04/08 05:35:18;;;;;;;3.33;0.30;;;3.60;99.90;;;;;;4987412;28;20076;-78
2022/04/08 05:37:46;;;;;;;3.65;0.20;;;3.60;99.90;;;;;;4987491;28;20056;-79
2022/04/08 05:40:14;;;;;;;3.20;0.38;;;3.60;99.90;;;;;;4989059;28;20021;-78
2022/04/08 05:42:44;;;;;;;3.30;0.20;;;3.60;99.90;;;;;;5006314;28;20417;-79
2022/04/08 05:45:10;;;;;;;;;;;3.60;99.90;;;;;;4986032;28;20081;-78
2022/04/08 05:47:36;;;;;;;3.00;0.40;;;3.70;99.90;;;;;;4999681;28;20381;-78
2022/04/08 05:50:03;;;;;;;3.03;0.30;;;3.70;99.90;;;;;;4992918;28;20030;-79
2022/04/08 05:52:29;;;;;;;5.30;0.30;;;3.80;99.90;;;;;;4987544;28;20081;-78
2022/04/08 05:54:54;;;;;;;3.65;0.22;;;3.90;99.90;;;;;;5006311;28;20474;-78
2022/04/08 05:57:20;;;;;;;4.15;0.30;;;4.00;99.90;;;;;;4987686;28;20037;-80
2022/04/08 05:59:49;;;;;;;2.63;0.30;;;4.10;99.90;;;;;;4978485;28;20068;-78
2022/04/08 06:02:15;;;;;;;2.67;0.30;;;4.20;99.90;;;;;;5005689;28;20037;-78
2022/04/08 06:04:41;;;;;;;5.90;0.40;;;4.20;99.90;;;;;;4992264;28;20026;-78
2022/04/08 06:07:07;;;;;;;4.88;0.52;;;4.40;99.90;;;;;;4991124;28;20130;-79
2022/04/08 06:09:33;;;;;;;4.78;0.63;;;4.40;99.90;;;;;;5007200;28;20411;-78
2022/04/08 06:11:59;;;;;;;8.25;1.20;;;4.50;99.90;;;;;;4987440;28;20546;-78
2022/04/08 06:14:26;;;;;;;3.63;0.40;;;4.50;99.90;;;;;;4987542;28;20064;-79
2022/04/08 06:16:52;;;;;;;3.70;0.55;;;4.50;99.90;;;;;;4993531;28;20026;-79
2022/04/08 06:19:18;;;;;;;4.05;0.30;;;4.60;99.90;;;;;;4991719;28;20038;-78
2022/04/08 06:21:43;;;;;;;9.88;1.02;;;4.60;99.90;;;;;;4991134;28;20094;-78
2022/04/08 06:24:09;;;;;;;5.60;0.40;;;4.60;99.90;;;;;;5003620;28;20113;-78
2022/04/08 06:26:36;;;;;;;2.42;0.30;;;4.70;99.90;;;;;;4971353;28;20026;-78
2022/04/08 06:29:02;;;;;;;2.15;0.40;;;4.70;99.90;;;;;;4987497;28;20030;-79
2022/04/08 06:31:30;;;;;;;2.45;0.40;;;4.80;99.90;;;;;;4971214;28;20070;-78
2022/04/08 06:33:58;;;;;;;4.85;0.63;;;4.80;99.90;;;;;;4971570;28;20038;-78
2022/04/08 06:36:24;;;;;;;5.43;0.50;;;4.90;99.90;;;;;;5005178;28;20018;-79
2022/04/08 06:38:50;;;;;;;2.70;0.40;;;4.90;99.90;;;;;;4970340;28;20062;-78
2022/04/08 06:41:15;;;;;;;4.18;0.40;;;5.00;99.90;;;;;;5003165;28;20499;-79
2022/04/08 06:43:41;;;;;;;3.28;0.55;;;5.00;99.90;;;;;;4995136;28;20383;-79
2022/04/08 06:46:06;;;;;;;3.47;0.40;;;5.10;99.90;;;;;;4987687;28;20136;-78
2022/04/08 06:48:33;;;;;;;5.47;0.70;;;5.20;99.90;;;;;;4998484;28;20470;-80
2022/04/08 06:51:00;;;;;;;1.42;0.40;;;5.20;99.90;;;;;;4998655;28;20066;-78
2022/04/08 06:53:26;;;;;;;4.80;0.40;;;5.40;99.90;;;;;;4967031;28;20146;-78
2022/04/08 06:55:52;;;;;;;1.63;0.30;;;5.60;99.90;;;;;;4975510;28;20537;-78
2022/04/08 06:58:19;;;;;;;2.85;0.40;;;5.70;99.90;;;;;;4986699;28;20034;-79
2022/04/08 07:00:45;;;;;;;6.53;0.60;;;5.60;99.90;;;;;;4987025;28;20554;-79
2022/04/08 07:03:11;;;;;;;3.40;0.45;;;5.60;99.90;;;;;;4972366;28;20061;-79
2022/04/08 07:05:36;;;;;;;5.93;0.82;;;5.80;99.90;;;;;;5004609;28;20057;-80
2022/04/08 07:08:02;;;;;;;3.28;0.50;;;5.70;99.90;;;;;;4989102;28;20117;-79
2022/04/08 07:10:28;;;;;;;4.40;0.50;;;5.80;99.90;;;;;;4988607;28;20037;-79
2022/04/08 07:12:54;;;;;;;3.50;0.50;;;5.90;99.90;;;;;;4985681;28;20120;-79
2022/04/08 07:15:20;;;;;;;5.25;0.50;;;6.00;99.90;;;;;;4988121;28;20121;-79
2022/04/08 07:17:45;;;;;;;6.50;0.88;;;6.20;99.90;;;;;;4998389;28;20040;-79
2022/04/08 07:20:13;;;;;;;6.00;0.60;;;6.20;99.90;;;;;;4986353;28;20092;-79
2022/04/08 07:22:41;;;;;;;4.93;0.80;;;6.40;99.90;;;;;;5005114;28;20052;-79
2022/04/08 07:25:07;;;;;;;3.05;0.50;;;6.30;99.90;;;;;;4989885;28;20132;-78
2022/04/08 07:27:45;;;;;;;4.03;0.50;;;6.40;99.90;;;;;;4999353;28;20113;-79
2022/04/08 07:30:12;;;;;;;3.58;0.40;;;6.50;99.90;;;;;;5005274;28;20039;-78
2022/04/08 07:32:37;;;;;;;4.82;0.80;;;6.60;99.90;;;;;;5002491;28;20034;-79
2022/04/08 07:35:03;;;;;;;3.50;0.43;;;6.60;99.90;;;;;;5003653;28;20033;-79
2022/04/08 07:37:32;;;;;;;6.53;0.50;;;6.60;99.90;;;;;;4984294;28;20040;-78
2022/04/08 07:39:58;;;;;;;4.00;0.40;;;6.60;99.90;;;;;;5002934;28;20022;-78
2022/04/08 07:42:25;;;;;;;4.50;0.43;;;6.70;99.90;;;;;;4973043;28;20587;-79
2022/04/08 07:44:51;;;;;;;6.40;0.65;;;6.80;99.90;;;;;;4992973;28;20033;-78
2022/04/08 07:47:18;;;;;;;6.20;0.50;;;6.80;99.90;;;;;;4993808;28;20390;-79
2022/04/08 07:49:44;;;;;;;4.43;0.40;;;6.90;99.90;;;;;;4986649;28;20438;-79
2022/04/08 07:52:09;;;;;;;7.03;0.50;;;7.00;99.90;;;;;;5003714;28;20046;-79
2022/04/08 07:54:35;;;;;;;3.42;0.40;;;7.00;99.90;;;;;;5004601;28;20025;-78
2022/04/08 07:57:00;;;;;;;2.88;0.63;;;7.10;99.90;;;;;;5004873;28;20042;-79
2022/04/08 07:59:26;;;;;;;3.85;0.50;;;7.00;99.90;;;;;;4990972;28;20046;-79
2022/04/08 08:01:52;;;;;;;5.22;0.40;;;7.10;99.90;;;;;;4982873;28;20022;-79
2022/04/08 08:04:17;;;;;;;4.38;0.40;;;7.20;99.90;;;;;;4980174;28;20834;-79
2022/04/08 08:06:43;;;;;;;4.40;0.40;;;7.00;99.90;;;;;;5005836;28;20537;-78
2022/04/08 08:09:08;;;;;;;4.68;0.75;;;6.90;99.90;;;;;;5005515;28;20142;-79
2022/04/08 08:11:35;;;;;;;2.33;0.30;;;7.00;99.90;;;;;;4968025;28;20080;-79
2022/04/08 08:14:01;;;;;;;2.20;0.28;;;7.20;99.90;;;;;;4990886;28;20040;-79
2022/04/08 08:16:26;;;;;;;3.60;0.30;;;7.20;99.90;;;;;;4990522;28;20026;-79
2022/04/08 08:18:56;;;;;;;3.80;0.30;;;7.20;99.90;;;;;;4990495;28;20535;-79
2022/04/08 08:21:23;;;;;;;3.42;0.38;;;7.30;99.90;;;;;;4974273;28;20026;-79
2022/04/08 08:23:48;;;;;;;3.83;0.30;;;7.50;99.90;;;;;;4985401;28;20056;-79
2022/04/08 08:26:14;;;;;;;2.25;0.30;;;7.70;99.90;;;;;;4986237;28;20109;-79
2022/04/08 08:28:39;;;;;;;4.03;0.30;;;7.80;99.90;;;;;;5005825;28;20490;-79
2022/04/08 08:31:05;;;;;;;4.88;0.40;;;7.50;99.90;;;;;;5004491;28;20026;-79
2022/04/08 08:33:31;;;;;;;4.55;0.40;;;7.70;99.90;;;;;;4986051;28;20483;-79
2022/04/08 08:35:56;;;;;;;3.40;0.40;;;7.60;99.90;;;;;;5004074;28;20098;-79
2022/04/08 08:38:22;;;;;;;1.83;0.40;;;7.70;99.90;;;;;;5002450;28;20438;-79
2022/04/08 08:40:49;;;;;;;3.55;0.30;;;7.90;99.90;;;;;;4981534;28;20026;-79
2022/04/08 08:43:18;;;;;;;3.67;0.30;;;7.90;99.90;;;;;;5001613;28;20142;-79
2022/04/08 08:45:49;;;;;;;2.85;0.30;;;8.10;99.90;;;;;;5004017;28;20160;-79
2022/04/08 08:48:15;;;;;;;;;;;8.10;99.90;;;;;;5001359;28;20033;-79
2022/04/08 08:50:46;;;;;;;3.55;0.30;;;8.20;99.90;;;;;;5002522;28;19963;-79
2022/04/08 08:53:16;;;;;;;2.60;0.30;;;8.30;99.90;;;;;;4991962;28;20042;-78
2022/04/08 08:55:41;;;;;;;2.67;0.28;;;8.30;99.90;;;;;;4990632;28;20037;-79
2022/04/08 08:58:08;;;;;;;2.58;0.30;;;8.40;99.90;;;;;;4998372;28;20041;-78
2022/04/08 09:00:35;;;;;;;1.05;0.20;;;8.50;99.90;;;;;;5004358;28;20042;-79
2022/04/08 09:03:03;;;;;;;4.07;0.40;;;8.50;99.90;;;;;;5007040;28;20441;-79
2022/04/08 09:05:29;;;;;;;4.70;0.40;;;8.40;99.90;;;;;;4978048;28;20681;-79
2022/04/08 09:07:59;;;;;;;1.65;0.30;;;8.30;99.90;;;;;;4994009;28;20057;-79
2022/04/08 09:10:48;;;;;;;1.95;0.30;;;8.50;99.90;;;;;;4973371;28;20397;-79
2022/04/08 09:13:21;;;;;;;1.25;0.38;;;8.50;99.90;;;;;;4984039;28;20463;-79
2022/04/08 09:15:55;;;;;;;3.47;0.60;;;8.50;99.90;;;;;;4978332;28;20113;-79
2022/04/08 09:18:21;;;;;;;3.50;0.30;;;8.50;99.90;;;;;;4980190;28;20420;-79
2022/04/08 09:20:49;;;;;;;3.92;0.43;;;8.60;99.90;;;;;;4994767;28;20030;-77
2022/04/08 09:23:17;;;;;;;2.53;0.50;;;8.50;99.90;;;;;;4998785;28;20142;-76
2022/04/08 09:25:43;;;;;;;2.55;0.52;;;8.70;99.90;;;;;;5000883;28;20050;-77
2022/04/08 09:28:13;;;;;;;1.83;0.30;;;8.80;99.90;;;;;;4997550;28;20399;-77
2022/04/08 09:30:40;;;;;;;2.63;0.40;;;9.00;99.90;;;;;;4998957;28;20041;-78
2022/04/08 09:33:20;;;;;;;1.88;0.38;;;8.90;99.90;;;;;;4980195;28;20046;-78
2022/04/08 09:35:47;;;;;;;3.40;0.63;;;8.70;99.90;;;;;;4961026;28;20038;-79
2022/04/08 09:38:18;;;;;;;5.30;0.40;;;8.60;99.90;;;;;;4978783;28;20038;-80
2022/04/08 09:40:44;;;;;;;3.28;0.40;;;8.90;99.90;;;;;;4970206;28;20041;-79
2022/04/08 09:43:12;;;;;;;2.10;0.30;;;8.80;99.90;;;;;;4994287;28;20030;-79
2022/04/08 09:45:38;;;;;;;4.88;0.50;;;9.00;99.90;;;;;;4979278;28;20116;-79
2022/04/08 09:48:05;;;;;;;3.25;0.50;;;8.60;99.90;;;;;;4999995;28;20034;-80
2022/04/08 09:50:32;;;;;;;6.15;1.35;;;8.60;99.90;;;;;;4977822;28;20479;-79
2022/04/08 09:52:58;;;;;;;3.92;0.60;;;8.70;99.90;;;;;;4986907;28;22672;-80
2022/04/08 09:55:25;;;;;;;4.78;0.50;;;8.50;99.90;;;;;;4987355;28;20534;-80
2022/04/08 09:58:04;;;;;;;3.70;0.50;;;8.30;99.90;;;;;;4977728;28;20030;-79
2022/04/08 10:00:31;;;;;;;5.63;0.50;;;8.30;99.90;;;;;;4973476;28;20773;-79
2022/04/08 10:03:01;;;;;;;4.75;0.55;;;8.20;99.90;;;;;;4995013;28;22333;-79
2022/04/08 10:05:27;;;;;;;6.03;0.70;;;8.10;99.90;;;;;;4960671;28;20042;-80
2022/04/08 10:07:54;;;;;;;5.90;0.55;;;8.20;99.90;;;;;;4998393;28;20022;-78
2022/04/08 10:11:00;;;;;;;3.17;0.82;;;8.40;99.90;;;;;;4959930;28;20034;-79
2022/04/08 10:13:32;;;;;;;2.40;0.45;;;8.50;99.90;;;;;;4951971;28;20050;-80
2022/04/08 10:16:18;;;;;;;4.95;0.50;;;8.40;99.90;;;;;;4987755;28;20725;-80
2022/04/08 10:18:45;;;;;;;3.83;0.50;;;8.40;99.90;;;;;;4997536;28;20367;-79
2022/04/08 10:21:11;;;;;;;6.22;0.55;;;8.50;99.90;;;;;;4981371;28;20045;-79
2022/04/08 10:23:38;;;;;;;3.75;0.50;;;8.50;99.90;;;;;;4980656;28;20037;-80
2022/04/08 10:26:15;;;;;;;3.13;0.70;;;8.50;99.90;;;;;;4976219;28;20439;-79
2022/04/08 10:28:41;;;;;;;5.25;0.60;;;8.40;99.90;;;;;;4974787;28;20084;-80
2022/04/08 10:31:22;;;;;;;6.18;0.60;;;8.50;99.90;;;;;;4979696;28;20038;-81
2022/04/08 10:33:59;;;;;;;3.17;0.40;;;8.60;99.90;;;;;;4993155;28;20517;-79
2022/04/08 10:36:37;;;;;;;2.22;0.50;;;8.50;99.90;;;;;;4992896;28;20435;-80
2022/04/08 10:39:17;;;;;;;5.45;0.57;;;8.70;99.90;;;;;;4983896;28;20054;-81
2022/04/08 10:41:57;;;;;;;4.75;1.10;;;8.60;99.90;;;;;;4976920;28;20053;-79
2022/04/08 10:44:33;;;;;;;;;;;8.40;99.90;;;;;;4977427;28;20034;-79
2022/04/08 10:47:02;;;;;;;3.00;0.60;;;8.50;99.90;;;;;;4972841;28;19917;-80
2022/04/08 10:49:28;;;;;;;3.97;0.50;;;9.00;99.90;;;;;;4959807;28;20105;-80
2022/04/08 10:51:54;;;;;;;6.47;0.50;;;8.90;99.90;;;;;;4960186;28;20035;-81
2022/04/08 10:54:20;;;;;;;3.25;0.50;;;8.80;99.90;;;;;;4975065;28;20033;-80
2022/04/08 10:56:57;;;;;;;4.88;0.65;;;8.70;99.90;;;;;;4979362;28;20112;-80
2022/04/08 10:59:27;;;;;;;5.13;0.57;;;8.70;99.90;;;;;;4983671;28;20038;-80
2022/04/08 11:01:58;;;;;;;3.22;0.50;;;9.00;99.90;;;;;;4995138;28;20750;-80
2022/04/08 11:04:27;;;;;;;2.67;0.40;;;9.10;99.90;;;;;;4976878;28;20034;-79
2022/04/08 11:06:53;;;;;;;1.52;0.40;;;9.40;99.90;;;;;;4994586;28;20546;-81
2022/04/08 11:09:19;;;;;;;3.05;0.50;;;9.30;99.90;;;;;;4993687;28;20126;-80
2022/04/08 11:11:52;;;;;;;5.93;0.80;;;9.40;99.90;;;;;;4957776;28;20038;-80
2022/04/08 11:14:17;;;;;;;4.75;0.80;;;9.00;99.90;;;;;;4976071;28;20467;-80
2022/04/08 11:16:43;;;;;;;3.35;0.60;;;9.20;99.90;;;;;;4978751;28;20142;-80
2022/04/08 11:19:10;;;;;;;3.70;0.60;;;9.30;99.90;;;;;;4981860;28;20161;-79
2022/04/08 11:21:38;;;;;;;2.30;0.50;;;9.20;99.90;;;;;;4953863;28;20093;-80
2022/04/08 11:24:09;;;;;;;2.33;0.57;;;9.30;99.90;;;;;;4965233;28;20426;-80
2022/04/08 11:26:43;;;;;;;5.65;0.50;;;9.40;99.90;;;;;;4976203;28;20042;-80
2022/04/08 11:29:27;;;;;;;5.20;0.60;;;9.40;99.90;;;;;;4976580;28;20491;-80
2022/04/08 11:32:06;;;;;;;5.65;0.70;;;9.10;99.90;;;;;;4981484;28;20034;-80
2022/04/08 11:34:32;;;;;;;3.47;0.50;;;9.00;99.90;;;;;;4992879;28;20026;-80
2022/04/08 11:36:57;;;;;;;4.72;0.60;;;9.10;99.90;;;;;;4978495;28;20106;-80
2022/04/08 11:39:23;;;;;;;4.05;0.40;;;9.10;99.90;;;;;;4995965;28;20034;-80
2022/04/08 11:41:53;;;;;;;3.67;0.40;;;9.30;99.90;;;;;;4959438;28;20499;-79
2022/04/08 11:44:20;;;;;;;2.17;0.65;;;9.40;99.90;;;;;;4992945;28;20029;-80
2022/04/08 11:46:45;;;;;;;5.35;0.60;;;9.70;99.90;;;;;;4975003;28;20026;-81
2022/04/08 11:49:12;;;;;;;3.13;0.50;;;9.30;99.90;;;;;;4991991;28;20125;-80
2022/04/08 11:51:38;;;;;;;3.70;0.77;;;9.40;99.90;;;;;;4990389;28;20039;-81
2022/04/08 11:54:04;;;;;;;5.07;1.08;;;9.40;99.90;;;;;;4983890;28;20402;-80
2022/04/08 11:56:30;;;;;;;3.35;0.77;;;9.40;99.90;;;;;;4998713;28;20026;-80
2022/04/08 11:59:11;;;;;;;1.23;0.40;;;9.50;99.90;;;;;;4959102;28;20029;-81
2022/04/08 12:01:41;;;;;;;6.45;0.60;;;9.60;99.90;;;;;;4975415;28;20104;-81
2022/04/08 12:04:11;;;;;;;;;;;9.30;99.90;;;;;;4977117;28;20398;-80
2022/04/08 12:06:49;;;;;;;;;;;9.30;99.90;;;;;;4980538;28;19924;-80
2022/04/08 12:09:17;;;;;;;2.67;0.55;;;9.40;99.90;;;;;;4993624;28;20354;-80
2022/04/08 12:11:45;;;;;;;4.90;0.93;;;9.90;99.90;;;;;;4977513;28;20034;-80
2022/04/08 12:14:11;;;;;;;6.32;1.13;;;9.50;99.90;;;;;;4972378;28;20038;-80
2022/04/08 12:16:39;;;;;;;4.72;1.00;;;9.20;99.90;;;;;;4969206;28;20088;-80
2022/04/08 12:19:06;;;;;;;6.38;0.70;;;9.10;99.90;;;;;;4989306;28;20030;-80
2022/04/08 12:21:32;;;;;;;4.15;0.77;;;9.00;99.90;;;;;;4990580;28;20293;-82
2022/04/08 12:23:59;;;;;;;2.28;0.50;;;9.10;99.90;;;;;;4974999;28;20342;-80
2022/04/08 12:26:32;;;;;;;1.20;0.38;;;9.30;99.90;;;;;;4991512;28;20034;-80
2022/04/08 12:29:15;;;;;;;3.40;1.05;;;9.70;99.90;;;;;;4993543;28;20025;-80
2022/04/08 12:31:48;;;;;;;4.00;0.95;;;9.30;99.90;;;;;;4992346;28;20042;-80
2022/04/08 12:34:17;;;;;;;3.38;0.68;;;9.20;99.90;;;;;;4977061;28;20038;-80
2022/04/08 12:36:45;;;;;;;4.75;1.33;;;9.40;99.90;;;;;;4975696;28;20024;-80
2022/04/08 12:39:11;;;;;;;5.47;1.25;;;9.20;99.90;;;;;;4995230;28;20038;-80
2022/04/08 12:41:41;;;;;;;5.68;0.98;;;8.90;99.90;;;;;;4980761;28;20026;-81
2022/04/08 12:44:08;;;;;;;6.45;1.48;;;8.70;99.90;;;;;;4999352;28;20073;-81
2022/04/08 12:46:35;;;;;;;3.83;0.73;;;8.60;99.90;;;;;;4997802;28;20022;-80
2022/04/08 12:49:00;;;;;;;4.13;0.60;;;8.40;99.90;;;;;;4982291;28;20122;-79
2022/04/08 12:51:28;;;;;;;6.78;1.45;;;8.60;99.90;;;;;;4980212;28;20037;-80
2022/04/08 12:53:54;;;;;;;4.25;1.08;;;8.30;99.90;;;;;;4992275;28;20133;-80
2022/04/08 12:56:19;;;;;;;2.53;0.70;;;8.00;99.90;;;;;;4998941;28;20565;-80
2022/04/08 12:58:46;;;;;;;4.97;0.70;;;8.20;99.90;;;;;;4999634;28;20049;-80
2022/04/08 13:01:12;;;;;;;2.17;0.60;;;8.40;99.90;;;;;;4997699;28;20458;-80
2022/04/08 13:03:38;;;;;;;6.38;1.02;;;8.40;99.90;;;;;;4980913;28;20402;-80
2022/04/08 13:06:04;;;;;;;3.78;0.80;;;8.40;99.90;;;;;;4997223;28;20030;-80
2022/04/08 13:08:30;;;;;;;3.88;0.70;;;8.60;99.90;;;;;;4976300;28;20470;-79
2022/04/08 13:10:56;;;;;;;4.13;0.80;;;8.70;99.90;;;;;;4996706;28;20491;-81
2022/04/08 13:13:22;;;;;;;3.65;0.70;;;8.90;99.90;;;;;;4994060;28;20061;-81
2022/04/08 13:15:49;;;;;;;3.75;0.98;;;8.90;99.90;;;;;;4981213;28;20022;-80
2022/04/08 13:18:15;;;;;;;5.47;1.15;;;9.00;99.90;;;;;;4997911;28;20034;-81
2022/04/08 13:20:40;;;;;;;6.75;0.88;;;9.00;99.90;;;;;;4990910;28;20057;-82
2022/04/08 13:23:06;;;;;;;5.40;0.90;;;9.20;99.90;;;;;;4975595;28;20050;-80
2022/04/08 13:25:32;;;;;;;5.50;1.15;;;9.10;99.90;;;;;;4976344;28;20030;-80